Time;durP1;ratioP1;P1;durP2;ratioP2;P2;SDS_P1;SDS_P2;PMS_P1;PMS_P2;Temp;Humidity;BMP_temperature;BMP_pressure;BME280_temperature;BME280_humidity;BME280_pressure;Samples;Min_cycle;Max_cycle;Signal;HPM_P1;HPM_P2
2022/09/21 04:49:41;;;;;;;4.40;4.10;;;18.20;99.90;;;;;;4989494;28;20072;-92
2022/09/21 04:52:08;;;;;;;4.57;4.13;;;18.20;99.90;;;;;;4973125;28;20027;-95
2022/09/21 04:54:35;;;;;;;5.32;4.20;;;18.20;99.90;;;;;;4973239;28;20026;-93
2022/09/21 04:59:38;;;;;;;5.57;4.40;;;18.30;99.90;;;;;;4963955;28;20081;-93
2022/09/21 05:02:14;;;;;;;5.38;4.88;;;18.30;99.90;;;;;;4952378;28;20054;-92
2022/09/21 05:04:41;;;;;;;8.93;4.90;;;18.30;99.90;;;;;;4951595;28;20097;-93
2022/09/21 05:07:11;;;;;;;5.38;5.07;;;18.30;99.90;;;;;;4970081;28;20022;-93
2022/09/21 05:10:39;;;;;;;;;;;;;;;;;;;;;
2022/09/21 05:13:52;;;;;;;5.45;4.97;;;18.30;99.90;;;;;;4902361;29;20046;-92
2022/09/21 05:18:56;;;;;;;5.90;5.32;;;18.30;99.90;;;;;;5246525;23;20067;-91
2022/09/21 05:21:23;;;;;;;6.22;5.80;;;18.40;99.90;;;;;;4963454;28;20045;-90
2022/09/21 05:23:50;;;;;;;6.50;6.00;;;18.50;99.90;;;;;;4961370;28;20043;-90
2022/09/21 05:26:32;;;;;;;10.20;6.13;;;18.50;99.90;;;;;;4965879;28;20039;-92
2022/09/21 05:29:03;;;;;;;5.97;5.47;;;18.50;99.90;;;;;;4962921;28;20069;-91
2022/09/21 05:31:33;;;;;;;9.02;6.00;;;18.50;99.90;;;;;;4961345;28;20030;-91
2022/09/21 05:34:06;;;;;;;11.10;6.20;;;18.50;99.90;;;;;;4962590;28;20114;-92
2022/09/21 05:37:01;;;;;;;7.93;5.97;;;18.50;99.90;;;;;;4964692;28;20058;-93
2022/09/21 05:39:31;;;;;;;8.68;6.22;;;18.50;99.90;;;;;;4960741;28;20121;-90
2022/09/21 05:42:13;;;;;;;11.70;6.40;;;18.50;99.90;;;;;;4963631;28;20054;-93
2022/09/21 05:44:43;;;;;;;9.73;6.57;;;18.50;99.90;;;;;;4969954;23;20047;-90
2022/09/21 05:47:22;;;;;;;5.70;5.30;;;18.50;99.90;;;;;;4942285;28;20498;-90
2022/09/21 05:50:21;;;;;;;8.05;5.40;;;18.50;99.90;;;;;;4962990;28;20043;-92
2022/09/21 05:53:07;;;;;;;7.05;5.10;;;18.50;99.90;;;;;;4935370;28;20034;-92
2022/09/21 05:55:56;;;;;;;5.50;5.00;;;18.60;99.90;;;;;;4938646;29;20110;-92
2022/09/21 05:58:26;;;;;;;10.90;5.40;;;18.50;99.90;;;;;;4954458;29;20035;-91
2022/09/21 06:01:27;;;;;;;5.72;5.38;;;18.40;99.90;;;;;;4923591;29;20028;-92
2022/09/21 06:03:55;;;;;;;6.03;5.57;;;18.40;99.90;;;;;;4954826;29;20047;-92
2022/09/21 06:06:22;;;;;;;16.42;6.95;;;18.40;99.90;;;;;;4938756;29;20429;-92
2022/09/21 06:08:55;;;;;;;6.28;5.90;;;18.40;99.90;;;;;;4938677;29;20031;-94
2022/09/21 06:11:21;;;;;;;5.95;5.55;;;18.50;99.90;;;;;;4938665;29;20023;-92
2022/09/21 06:13:48;;;;;;;6.45;5.95;;;18.50;99.90;;;;;;4938401;29;20510;-91
2022/09/21 06:16:15;;;;;;;6.00;5.70;;;18.60;99.90;;;;;;4955051;29;20027;-92
2022/09/21 06:18:42;;;;;;;7.38;5.75;;;18.60;99.90;;;;;;4938932;29;20433;-91
2022/09/21 06:21:09;;;;;;;6.30;5.80;;;18.60;99.90;;;;;;4954598;29;20031;-92
2022/09/21 06:23:36;;;;;;;6.40;6.00;;;18.70;99.90;;;;;;4938554;29;20042;-92
2022/09/21 06:31:48;;;;;;;6.50;5.90;;;18.80;99.90;;;;;;4945973;28;20067;-93
2022/09/21 06:35:10;;;;;;;;;;;;;;;;;;;;;
2022/09/21 06:38:27;;;;;;;6.97;6.00;;;18.90;99.90;;;;;;4932225;29;20109;-93
2022/09/21 06:45:21;;;;;;;12.93;6.97;;;19.20;99.90;;;;;;4825161;29;20137;-93
2022/09/21 06:50:16;;;;;;;11.65;7.18;;;19.50;99.90;;;;;;5017635;23;20416;-90
2022/09/21 06:52:42;;;;;;;8.43;7.63;;;19.70;99.90;;;;;;4966670;28;20485;-91
2022/09/21 06:55:09;;;;;;;8.55;7.82;;;19.90;99.90;;;;;;4966135;28;20026;-87
2022/09/21 06:57:39;;;;;;;9.40;8.13;;;20.00;99.90;;;;;;4982668;28;20105;-85
2022/09/21 07:00:09;;;;;;;9.13;8.30;;;20.10;99.90;;;;;;4966061;28;20030;-92
2022/09/21 07:02:36;;;;;;;9.75;8.60;;;20.30;99.90;;;;;;4965893;28;20083;-79
2022/09/21 07:05:03;;;;;;;11.95;9.30;;;20.20;99.90;;;;;;4998788;28;20057;-79
2022/09/21 07:07:30;;;;;;;14.70;9.60;;;20.30;99.90;;;;;;4998657;28;20519;-78
2022/09/21 07:09:59;;;;;;;24.50;10.90;;;20.40;99.90;;;;;;4965502;28;20034;-83
2022/09/21 07:12:33;;;;;;;11.52;9.82;;;20.60;99.90;;;;;;4965209;28;20034;-79
2022/09/21 07:15:04;;;;;;;15.52;9.95;;;21.00;99.90;;;;;;4998822;28;20471;-80
2022/09/21 07:17:35;;;;;;;11.02;10.18;;;21.10;99.90;;;;;;4981687;28;20484;-85
2022/09/21 07:20:03;;;;;;;12.43;11.27;;;21.30;99.90;;;;;;4965150;28;20038;-84
2022/09/21 07:22:32;;;;;;;11.38;10.55;;;21.20;99.90;;;;;;4981687;28;20105;-86
2022/09/21 07:25:17;;;;;;;11.82;10.93;;;21.30;99.90;;;;;;4966510;28;20046;-93
2022/09/21 07:27:43;;;;;;;12.02;11.10;;;21.60;99.90;;;;;;4963914;28;20030;-86
2022/09/21 07:30:48;;;;;;;11.70;10.93;;;21.80;99.90;;;;;;4963714;28;20029;-86
2022/09/21 10:31:08;;;;;;;;;;;23.40;99.90;;;;;;4975233;28;20053;-85
2022/09/21 10:34:05;;;;;;;15.90;15.10;;;23.40;99.90;;;;;;4944943;28;19949;-84
2022/09/21 10:36:31;;;;;;;16.05;15.02;;;23.70;99.90;;;;;;4960840;28;20471;-85
2022/09/21 10:39:22;;;;;;;15.50;14.80;;;23.70;99.90;;;;;;4978000;28;20110;-83
2022/09/21 10:41:54;;;;;;;15.68;14.60;;;23.50;99.90;;;;;;4944249;28;20118;-80
2022/09/21 10:44:24;;;;;;;16.50;15.07;;;23.60;99.90;;;;;;4959681;28;20039;-81
2022/09/21 10:46:52;;;;;;;15.82;14.82;;;23.40;99.90;;;;;;4960214;28;20023;-82
2022/09/21 10:49:28;;;;;;;16.00;15.10;;;23.40;99.90;;;;;;4959846;28;20038;-81
2022/09/21 10:51:58;;;;;;;15.25;14.55;;;23.60;99.90;;;;;;4944159;28;20113;-81
2022/09/21 10:54:31;;;;;;;15.68;14.70;;;23.40;99.90;;;;;;4944048;28;20034;-81
2022/09/21 10:57:06;;;;;;;15.85;15.05;;;23.10;99.90;;;;;;4959959;28;20089;-81
2022/09/21 10:59:36;;;;;;;16.38;15.25;;;23.40;99.90;;;;;;4977339;28;20027;-81
2022/09/21 11:02:24;;;;;;;15.00;14.25;;;23.40;99.90;;;;;;4960572;28;20166;-82
2022/09/21 11:05:19;;;;;;;16.40;14.90;;;23.30;99.90;;;;;;4959768;28;20026;-82
2022/09/21 11:07:56;;;;;;;15.55;14.55;;;23.70;99.90;;;;;;4943671;28;20117;-80
2022/09/21 11:10:26;;;;;;;15.43;14.73;;;23.70;99.90;;;;;;4943611;28;20035;-80
2022/09/21 11:13:03;;;;;;;16.13;15.00;;;23.70;99.90;;;;;;4943531;28;20045;-81
2022/09/21 11:15:46;;;;;;;15.00;14.20;;;23.70;99.90;;;;;;4959375;28;20588;-81
2022/09/21 11:18:38;;;;;;;15.25;14.25;;;23.20;99.90;;;;;;4976932;28;20424;-81
2022/09/21 11:21:14;;;;;;;15.93;14.73;;;23.20;99.90;;;;;;4943464;28;20062;-81
2022/09/21 11:24:06;;;;;;;16.05;14.65;;;23.30;99.90;;;;;;4959346;28;20027;-81
2022/09/21 11:26:43;;;;;;;15.30;14.40;;;22.80;99.90;;;;;;4943344;28;20516;-82
2022/09/21 11:29:26;;;;;;;15.30;14.50;;;22.70;99.90;;;;;;4965532;28;20054;-81
2022/09/21 11:32:19;;;;;;;15.55;14.55;;;23.00;99.90;;;;;;4962463;28;20049;-81
2022/09/21 11:35:02;;;;;;;16.23;15.00;;;22.90;99.90;;;;;;4962317;28;20410;-80
2022/09/21 11:37:47;;;;;;;16.00;15.10;;;23.00;99.90;;;;;;4978453;28;20443;-81
2022/09/21 11:40:24;;;;;;;15.48;14.60;;;23.20;99.90;;;;;;4962270;28;20034;-80
2022/09/21 11:43:33;;;;;;;15.48;14.57;;;23.10;99.90;;;;;;4978652;28;20054;-79
2022/09/21 11:46:22;;;;;;;15.35;14.43;;;23.20;99.90;;;;;;4978163;28;20030;-78
2022/09/21 11:49:04;;;;;;;15.93;15.10;;;23.30;99.90;;;;;;4995989;28;20026;-79
2022/09/21 11:52:08;;;;;;;15.75;14.95;;;23.20;99.90;;;;;;4962201;28;20546;-78
2022/09/21 11:54:59;;;;;;;15.95;15.00;;;23.00;99.90;;;;;;4978116;28;20082;-79
2022/09/21 11:57:42;;;;;;;16.02;15.00;;;22.90;99.90;;;;;;4978234;28;20389;-79
2022/09/21 12:00:20;;;;;;;15.30;14.50;;;22.70;99.90;;;;;;4978179;28;20034;-80
2022/09/21 12:06:37;;;;;;;15.55;14.40;;;22.60;99.90;;;;;;4937414;29;20158;-94
2022/09/21 12:09:47;;;;;;;15.10;14.40;;;22.60;99.90;;;;;;4906164;29;20103;-92
2022/09/21 12:12:40;;;;;;;15.43;14.50;;;22.70;99.90;;;;;;4923061;29;20094;-93
2022/09/21 12:15:31;;;;;;;15.43;14.40;;;22.90;99.90;;;;;;4922762;29;20039;-92
2022/09/21 12:18:10;;;;;;;15.80;14.60;;;23.00;99.90;;;;;;4905494;29;20126;-94
2022/09/21 12:20:47;;;;;;;15.15;14.35;;;22.90;99.90;;;;;;4921952;29;20028;-93
2022/09/21 12:23:47;;;;;;;15.77;14.57;;;22.90;99.90;;;;;;4921657;29;20031;-93
2022/09/21 12:26:21;;;;;;;14.82;14.13;;;22.90;99.90;;;;;;4920990;29;20119;-91
2022/09/21 12:29:02;;;;;;;15.50;14.40;;;22.90;99.90;;;;;;4920258;29;20032;-92
2022/09/21 12:31:30;;;;;;;15.57;14.57;;;22.80;99.90;;;;;;4920750;29;20036;-93
2022/09/21 12:43:04;;;;;;;15.20;14.35;;;22.50;99.90;;;;;;5744710;23;20066;-94
2022/09/21 12:48:41;;;;;;;15.18;14.43;;;22.40;99.90;;;;;;5181036;23;20498;-92
2022/09/21 15:30:36;;;;;;;13.70;13.00;;;21.10;99.90;;;;;;3140297;23;20239;-92
2022/09/21 15:33:23;;;;;;;14.45;13.57;;;21.10;99.90;;;;;;4925526;29;20189;-93
2022/09/21 15:35:59;;;;;;;14.63;13.65;;;21.10;99.90;;;;;;4924058;29;20059;-93
2022/09/21 15:38:31;;;;;;;14.07;13.37;;;20.90;99.90;;;;;;4911582;29;20552;-93
2022/09/21 15:40:58;;;;;;;13.80;13.20;;;21.00;99.90;;;;;;4926425;29;20477;-93
2022/09/21 15:43:24;;;;;;;13.98;13.27;;;20.90;99.90;;;;;;4921642;29;20038;-92
2022/09/21 15:45:57;;;;;;;14.20;13.60;;;20.80;99.90;;;;;;4921671;29;20047;-93
2022/09/21 15:48:33;;;;;;;13.90;13.20;;;20.60;99.90;;;;;;4906527;29;20050;-92
2022/09/21 15:51:08;;;;;;;14.50;13.70;;;20.60;99.90;;;;;;4906838;29;20034;-93
2022/09/21 15:53:46;;;;;;;13.90;13.00;;;20.60;99.90;;;;;;4909793;29;20051;-92
2022/09/21 15:56:25;;;;;;;14.35;13.65;;;20.60;99.90;;;;;;4922612;29;20042;-93
2022/09/21 15:59:06;;;;;;;14.30;13.60;;;20.50;99.90;;;;;;4923022;29;20028;-92
2022/09/21 16:01:42;;;;;;;14.35;13.57;;;20.50;99.90;;;;;;4921846;29;20043;-93
2022/09/21 17:09:40;;;;;;;;;;;;;;;;;;;;;
2022/09/21 17:12:34;;;;;;;;;;;;;;;;;;;;;
2022/09/21 17:21:44;;;;;;;15.10;14.10;;;18.80;99.90;;;;;;6088890;23;20021;-94
2022/09/21 17:24:11;;;;;;;15.75;14.82;;;18.80;99.90;;;;;;5285347;23;20018;-94
2022/09/21 17:33:33;;;;;;;14.32;13.40;;;18.70;99.90;;;;;;4977343;28;20039;-94
2022/09/21 17:39:52;;;;;;;15.00;14.13;;;18.70;99.90;;;;;;4919238;29;20033;-95
2022/09/21 17:57:39;;;;;;;13.38;12.77;;;18.50;99.90;;;;;;5463631;23;20443;-92
2022/09/21 18:00:49;;;;;;;14.32;13.35;;;18.40;99.90;;;;;;4955824;29;20043;-93
2022/09/21 18:03:23;;;;;;;14.40;13.40;;;18.40;99.90;;;;;;4938682;29;20027;-93
2022/09/21 18:05:55;;;;;;;14.38;13.10;;;18.30;99.90;;;;;;4938061;29;20031;-91
2022/09/21 18:08:26;;;;;;;13.63;12.82;;;18.30;99.90;;;;;;4953411;29;20031;-92
2022/09/21 18:11:04;;;;;;;14.02;13.02;;;18.30;99.90;;;;;;5012626;23;20105;-93
2022/09/21 18:13:59;;;;;;;14.52;13.27;;;18.20;99.90;;;;;;4980874;28;20051;-93
2022/09/21 18:17:08;;;;;;;14.18;13.30;;;18.20;99.90;;;;;;4904553;28;20038;-94
2022/09/21 18:19:41;;;;;;;14.60;13.18;;;18.20;99.90;;;;;;4960834;28;20061;-92
2022/09/21 18:22:42;;;;;;;14.07;13.00;;;18.10;99.90;;;;;;4960013;28;20042;-92
2022/09/21 18:25:26;;;;;;;14.20;13.40;;;18.10;99.90;;;;;;4956519;28;20042;-92
2022/09/21 18:27:57;;;;;;;14.03;13.10;;;18.10;99.90;;;;;;4962767;28;20035;-93
2022/09/21 18:30:25;;;;;;;13.98;13.15;;;18.10;99.90;;;;;;4964017;28;20317;-94
2022/09/21 18:33:09;;;;;;;13.90;13.02;;;18.00;99.90;;;;;;4963001;28;20031;-91
2022/09/21 18:36:29;;;;;;;14.70;13.35;;;18.00;99.90;;;;;;4965814;28;20038;-92
2022/09/21 18:38:55;;;;;;;14.55;13.23;;;18.00;99.90;;;;;;4934274;28;20089;-91
2022/09/21 18:41:40;;;;;;;13.38;12.50;;;17.90;99.90;;;;;;4962653;28;20492;-95
2022/09/21 18:44:43;;;;;;;14.70;13.15;;;17.90;99.90;;;;;;4965199;28;20082;-93
2022/09/21 18:47:31;;;;;;;13.60;12.75;;;17.90;99.90;;;;;;4955679;28;20035;-92
2022/09/21 18:50:17;;;;;;;14.00;13.20;;;17.80;99.90;;;;;;4962074;28;20126;-92
2022/09/21 18:52:50;;;;;;;15.48;13.82;;;17.80;99.90;;;;;;4963468;28;20096;-92
2022/09/21 18:55:26;;;;;;;15.77;14.07;;;17.80;99.90;;;;;;4963440;28;20035;-92
2022/09/21 18:57:56;;;;;;;14.75;13.50;;;17.70;99.90;;;;;;4962215;28;20058;-94
2022/09/21 19:00:29;;;;;;;14.23;13.30;;;17.70;99.90;;;;;;4962057;28;20050;-93
2022/09/21 19:03:15;;;;;;;13.82;12.93;;;17.70;99.90;;;;;;4962628;28;20054;-93
2022/09/21 19:05:53;;;;;;;14.55;13.10;;;17.70;99.90;;;;;;4961750;28;20031;-91
2022/09/21 19:08:38;;;;;;;13.68;12.98;;;17.70;99.90;;;;;;4961938;28;20399;-92
2022/09/21 19:11:10;;;;;;;14.73;13.60;;;17.60;99.90;;;;;;4965658;28;20663;-92
2022/09/21 19:14:16;;;;;;;14.55;13.30;;;17.60;99.90;;;;;;4964937;28;20069;-92
2022/09/21 19:17:19;;;;;;;14.10;13.30;;;17.60;99.90;;;;;;4959774;28;20050;-91
2022/09/21 19:20:17;;;;;;;14.30;13.30;;;17.50;99.90;;;;;;4965010;28;20037;-91
2022/09/21 19:23:17;;;;;;;14.35;13.30;;;17.50;99.90;;;;;;4964897;28;20030;-94
2022/09/21 19:25:58;;;;;;;13.63;12.90;;;17.50;99.90;;;;;;4964972;28;20027;-93
2022/09/21 19:28:43;;;;;;;13.75;12.95;;;17.50;99.90;;;;;;4981789;28;20030;-94
2022/09/21 19:31:17;;;;;;;13.82;13.02;;;17.60;99.90;;;;;;4966058;28;20034;-92
2022/09/21 19:33:46;;;;;;;14.13;13.25;;;17.60;99.90;;;;;;4982551;28;20110;-92
2022/09/21 19:36:41;;;;;;;14.32;13.13;;;17.60;99.90;;;;;;4964849;28;20098;-93
2022/09/21 19:39:10;;;;;;;14.35;13.32;;;17.70;99.90;;;;;;4964640;28;20046;-94
2022/09/21 19:42:15;;;;;;;13.65;12.95;;;17.60;99.90;;;;;;4980742;28;20022;-91
2022/09/21 19:45:11;;;;;;;14.48;13.48;;;17.60;99.90;;;;;;4923627;29;20036;-91
2022/09/21 19:48:08;;;;;;;14.25;13.35;;;17.70;99.90;;;;;;4976781;28;20403;-91
2022/09/21 19:50:56;;;;;;;14.32;13.40;;;17.80;99.90;;;;;;4980697;28;20038;-92
2022/09/21 20:01:57;;;;;;;14.15;13.45;;;17.80;99.90;;;;;;4985489;28;20413;-91
2022/09/21 20:04:39;;;;;;;14.23;13.23;;;17.80;99.90;;;;;;4967696;28;20113;-90
2022/09/21 20:07:34;;;;;;;14.40;13.45;;;17.80;99.90;;;;;;4965778;28;20058;-93
2022/09/21 20:10:08;;;;;;;;;;;17.80;99.90;;;;;;4947731;28;20050;-92
2022/09/21 20:12:49;;;;;;;14.20;13.45;;;17.90;99.90;;;;;;4980553;28;19909;-92
2022/09/21 20:15:28;;;;;;;14.80;13.60;;;17.90;99.90;;;;;;4964746;28;20038;-91
2022/09/21 20:18:10;;;;;;;13.60;13.00;;;17.90;99.90;;;;;;4964152;28;20050;-91
2022/09/21 20:20:41;;;;;;;14.10;13.30;;;18.00;99.90;;;;;;4966068;28;20092;-91
2022/09/21 20:23:12;;;;;;;14.68;13.63;;;18.00;99.90;;;;;;4966668;28;20038;-91
2022/09/21 20:25:53;;;;;;;14.15;13.45;;;18.00;99.90;;;;;;4963829;28;20026;-91
2022/09/21 20:28:20;;;;;;;14.35;13.50;;;17.90;99.90;;;;;;4964331;28;20034;-93
2022/09/21 20:30:49;;;;;;;14.82;13.60;;;17.90;99.90;;;;;;4965492;28;20022;-92
2022/09/21 20:33:22;;;;;;;14.05;13.35;;;17.80;99.90;;;;;;4964533;28;20125;-93
2022/09/21 20:35:54;;;;;;;14.25;13.43;;;17.80;99.90;;;;;;4980465;28;20034;-91
2022/09/21 20:38:22;;;;;;;14.20;13.50;;;17.70;99.90;;;;;;4979707;28;20031;-93
2022/09/21 20:40:50;;;;;;;14.00;13.27;;;17.60;99.90;;;;;;4964200;28;20030;-92
2022/09/21 20:43:17;;;;;;;14.70;13.48;;;17.60;99.90;;;;;;4962197;28;20138;-92
2022/09/21 20:45:48;;;;;;;14.00;13.30;;;17.50;99.90;;;;;;4962184;28;20114;-92
2022/09/21 20:48:15;;;;;;;13.95;13.10;;;17.50;99.90;;;;;;4962104;28;20030;-93
2022/09/21 20:50:49;;;;;;;13.95;13.05;;;17.40;99.90;;;;;;4961597;28;20022;-92
2022/09/21 20:53:18;;;;;;;14.30;13.35;;;17.40;99.90;;;;;;4962195;28;20042;-94
2022/09/21 20:55:53;;;;;;;14.20;13.20;;;17.40;99.90;;;;;;4977771;28;20038;-92
2022/09/21 20:58:20;;;;;;;14.23;13.32;;;17.30;99.90;;;;;;4962250;28;20027;-92
2022/09/21 21:00:47;;;;;;;13.48;12.75;;;17.30;99.90;;;;;;4961831;28;20553;-93
2022/09/21 21:03:14;;;;;;;13.82;13.00;;;17.30;99.90;;;;;;4977835;28;20113;-93
2022/09/21 21:05:40;;;;;;;13.55;12.85;;;17.20;99.90;;;;;;4961728;28;20026;-93
2022/09/21 21:08:08;;;;;;;13.52;12.80;;;17.20;99.90;;;;;;4978171;28;20058;-93
2022/09/21 21:10:35;;;;;;;13.63;12.70;;;17.10;99.90;;;;;;4961685;28;20503;-92
2022/09/21 21:13:04;;;;;;;13.70;12.77;;;17.10;99.90;;;;;;4961905;28;20081;-93
2022/09/21 21:15:31;;;;;;;14.27;13.18;;;17.00;99.90;;;;;;4961982;28;20054;-93
2022/09/21 21:17:57;;;;;;;13.45;12.55;;;17.00;99.90;;;;;;4961766;28;20365;-93
2022/09/21 21:20:24;;;;;;;13.30;12.60;;;16.90;99.90;;;;;;4961767;28;20034;-92
2022/09/21 21:22:52;;;;;;;14.23;13.00;;;16.90;99.90;;;;;;4977849;28;20490;-93
2022/09/21 21:25:19;;;;;;;13.38;12.65;;;16.90;99.90;;;;;;4963196;28;20026;-93
2022/09/21 21:27:46;;;;;;;14.20;12.82;;;16.80;99.90;;;;;;4961756;28;20030;-94
2022/09/21 21:30:12;;;;;;;13.80;12.85;;;16.80;99.90;;;;;;4961675;28;20018;-93
2022/09/21 21:32:42;;;;;;;13.82;12.93;;;16.80;99.90;;;;;;4961440;28;20034;-93
2022/09/21 21:38:52;;;;;;;13.65;12.73;;;16.80;99.90;;;;;;4979723;23;20065;-93
2022/09/21 21:41:30;;;;;;;13.52;12.63;;;16.80;99.90;;;;;;4961567;28;20035;-94
2022/09/21 21:44:00;;;;;;;17.23;12.77;;;16.80;99.90;;;;;;4978565;28;20066;-94
2022/09/21 21:46:28;;;;;;;13.40;12.70;;;16.80;99.90;;;;;;4962031;28;20034;-92
2022/09/21 21:48:55;;;;;;;13.30;12.60;;;16.80;99.90;;;;;;4977513;28;20030;-93
2022/09/21 21:51:22;;;;;;;13.50;12.50;;;16.80;99.90;;;;;;4961636;28;20029;-93
2022/09/21 21:53:49;;;;;;;12.80;12.20;;;16.80;99.90;;;;;;4977747;28;20039;-92
2022/09/21 21:56:17;;;;;;;13.23;12.43;;;16.70;99.90;;;;;;4961226;28;20034;-93
2022/09/21 21:58:44;;;;;;;13.32;12.30;;;16.70;99.90;;;;;;4977308;28;20407;-94
2022/09/21 22:01:13;;;;;;;13.18;12.38;;;16.70;99.90;;;;;;4961214;28;20109;-93
2022/09/21 22:03:41;;;;;;;13.20;12.27;;;16.70;99.90;;;;;;4980849;28;20479;-92
2022/09/21 22:06:09;;;;;;;13.27;12.45;;;16.70;99.90;;;;;;4965166;28;20030;-93
2022/09/21 22:08:37;;;;;;;13.43;12.52;;;16.60;99.90;;;;;;4980808;28;20038;-92
2022/09/21 22:11:05;;;;;;;13.13;12.27;;;16.50;99.90;;;;;;4964679;28;20036;-93
2022/09/21 22:13:37;;;;;;;13.73;12.77;;;16.50;99.90;;;;;;4981487;28;20026;-94
2022/09/21 22:16:58;;;;;;;13.80;12.40;;;16.40;99.90;;;;;;4993865;23;20054;-93
2022/09/21 22:19:32;;;;;;;13.30;12.30;;;16.40;99.90;;;;;;4962260;28;20047;-93
2022/09/21 22:22:02;;;;;;;12.70;11.90;;;16.30;99.90;;;;;;4962154;28;20119;-93
2022/09/21 22:24:29;;;;;;;13.00;12.20;;;16.20;99.90;;;;;;4960274;28;20031;-94
2022/09/21 22:27:03;;;;;;;12.85;12.05;;;16.20;99.90;;;;;;5175252;23;20408;31
2022/09/21 22:55:02;;;;;;;12.75;12.05;;;15.80;99.90;;;;;;4957952;29;20085;-94
2022/09/21 22:57:52;;;;;;;12.90;12.07;;;15.80;99.90;;;;;;4942353;29;20059;-96
2022/09/21 23:00:35;;;;;;;13.30;12.10;;;15.80;99.90;;;;;;4923262;29;20115;-92
2022/09/21 23:03:05;;;;;;;12.43;11.63;;;15.70;99.90;;;;;;4922938;29;20027;-94
2022/09/21 23:05:31;;;;;;;12.93;12.18;;;15.70;99.90;;;;;;4922811;29;20115;-94
2022/09/21 23:07:58;;;;;;;13.02;12.10;;;15.70;99.90;;;;;;4923713;29;20028;-94
2022/09/21 23:10:26;;;;;;;13.20;12.23;;;15.60;99.90;;;;;;4924271;29;20036;-93
2022/09/21 23:12:53;;;;;;;12.75;12.00;;;15.60;99.90;;;;;;4922466;29;20023;-92
2022/09/21 23:15:20;;;;;;;12.70;12.00;;;15.60;99.90;;;;;;4922476;29;20063;-94
2022/09/21 23:17:47;;;;;;;12.70;11.90;;;15.50;99.90;;;;;;4922384;29;20036;-95
2022/09/21 23:20:14;;;;;;;12.75;12.05;;;15.40;99.90;;;;;;4922352;29;20031;-93
2022/09/21 23:22:41;;;;;;;12.70;12.00;;;15.40;99.90;;;;;;4922258;29;20059;-93
2022/09/21 23:25:08;;;;;;;13.25;12.27;;;15.30;99.90;;;;;;4922275;29;20118;-94
2022/09/21 23:27:35;;;;;;;12.95;11.98;;;15.30;99.90;;;;;;4922367;29;20035;-93
2022/09/21 23:30:01;;;;;;;13.10;12.10;;;15.30;99.90;;;;;;4922447;29;20020;-93
2022/09/21 23:32:28;;;;;;;12.68;11.90;;;15.30;99.90;;;;;;4922280;29;20046;-94
2022/09/21 23:34:55;;;;;;;12.27;11.68;;;15.20;99.90;;;;;;4922466;29;20485;-92
2022/09/21 23:37:22;;;;;;;12.20;11.50;;;15.20;99.90;;;;;;4922150;29;20548;-94
2022/09/21 23:39:52;;;;;;;12.82;12.13;;;15.20;99.90;;;;;;4922011;29;20437;-93
2022/09/21 23:42:19;;;;;;;12.90;12.20;;;15.10;99.90;;;;;;4921852;29;20031;-93
2022/09/21 23:44:45;;;;;;;11.90;11.32;;;15.10;99.90;;;;;;4921897;29;20148;-95
2022/09/21 23:47:12;;;;;;;12.52;11.63;;;15.10;99.90;;;;;;4922052;29;20060;-93
2022/09/21 23:49:39;;;;;;;12.27;11.52;;;15.10;99.90;;;;;;4921773;29;20090;-93
2022/09/21 23:52:05;;;;;;;12.45;11.63;;;15.10;99.90;;;;;;4921947;29;20035;-92
2022/09/21 23:54:32;;;;;;;12.20;11.40;;;15.00;99.90;;;;;;4921503;29;20066;-94
2022/09/21 23:57:02;;;;;;;12.52;11.55;;;15.10;99.90;;;;;;4921542;29;20035;-95
2022/09/21 23:59:28;;;;;;;12.43;11.60;;;15.00;99.90;;;;;;4921532;29;20043;-93
